createdAt,value
2017-09-13T00:00:39.771Z,11.1
2017-09-13T00:01:38.685Z,11.1
2017-09-13T00:05:35.375Z,11.2
2017-09-13T00:06:34.921Z,11.2
2017-09-13T00:08:33.345Z,11.2
2017-09-13T00:16:26.334Z,11.2
2017-09-13T00:17:26.126Z,11.2
2017-09-13T00:18:24.909Z,11.2
2017-09-13T00:19:24.201Z,11.2
2017-09-13T00:21:22.632Z,11.2
2017-09-13T00:27:17.840Z,11.2
2017-09-13T00:29:16.139Z,11.2
2017-09-13T00:30:15.681Z,11.2
2017-09-13T00:32:14.101Z,11.2
2017-09-13T00:33:12.884Z,11.2
2017-09-13T00:35:11.066Z,11.3
2017-09-13T00:36:10.356Z,11.3
2017-09-13T00:38:08.785Z,11.3
2017-09-13T00:40:07.342Z,11.3
2017-09-13T00:43:04.910Z,11.3
2017-09-13T00:45:03.090Z,11.3
2017-09-13T00:47:01.392Z,11.3
2017-09-13T00:49:59.074Z,11.3
2017-09-13T00:50:58.362Z,11.3
2017-09-13T00:51:57.782Z,11.3
2017-09-13T00:56:53.485Z,11.3
2017-09-13T00:57:52.774Z,11.3
2017-09-13T01:01:49.219Z,11.3
2017-09-13T01:02:48.762Z,11.3
2017-09-13T01:03:47.929Z,11.3
2017-09-13T01:04:47.091Z,11.3
2017-09-13T01:05:46.128Z,11.3
2017-09-13T01:06:45.288Z,11.3
2017-09-13T01:09:42.972Z,11.2
2017-09-13T01:10:42.136Z,11.2
2017-09-13T01:11:41.668Z,11.2
2017-09-13T01:12:40.466Z,11.2
2017-09-13T01:13:39.512Z,11.2
2017-09-13T01:14:38.673Z,11.3
2017-09-13T01:16:37.348Z,11.2
2017-09-13T01:17:36.514Z,11.3
2017-09-13T01:18:35.417Z,11.3
2017-09-13T01:20:34.095Z,11.3
2017-09-13T01:21:33.261Z,11.3
2017-09-13T01:22:32.545Z,11.3
2017-09-13T01:24:30.465Z,11.3
2017-09-13T01:26:28.893Z,11.3
2017-09-13T01:27:28.053Z,11.3
2017-09-13T01:29:26.852Z,11.2
2017-09-13T01:30:25.641Z,11.2
2017-09-13T01:31:25.058Z,11.3
2017-09-13T01:33:23.740Z,11.3
2017-09-13T01:34:22.397Z,11.3
2017-09-13T01:39:18.737Z,11.3
2017-09-13T01:40:17.647Z,11.3
2017-09-13T01:41:17.063Z,11.3
2017-09-13T01:42:16.228Z,11.3
2017-09-13T01:43:15.514Z,11.2
2017-09-13T01:44:14.554Z,11.2
2017-09-13T01:45:13.470Z,11.2
2017-09-13T01:47:12.023Z,11.2
2017-09-13T01:49:10.329Z,11.2
2017-09-13T01:50:09.491Z,11.2
2017-09-13T01:51:08.782Z,11.2
2017-09-13T01:52:08.067Z,11.2
2017-09-13T01:53:07.224Z,11.2
2017-09-13T01:56:04.657Z,11.2
2017-09-13T01:59:02.339Z,11.2
2017-09-13T02:00:01.519Z,11.2
2017-09-13T02:01:00.816Z,11.2
2017-09-13T02:02:58.857Z,11.2
2017-09-13T02:04:57.528Z,11.2
2017-09-13T02:05:56.707Z,11.2
2017-09-13T02:08:54.516Z,11.2
2017-09-13T02:10:52.187Z,11.2
2017-09-13T02:12:50.866Z,11.2
2017-09-13T02:13:50.038Z,11.2
2017-09-13T02:14:48.945Z,11.2
2017-09-13T02:15:48.487Z,11.2
2017-09-13T02:17:46.785Z,11.3
2017-09-13T02:19:45.331Z,11.2
2017-09-13T02:21:43.382Z,11.3
2017-09-13T02:22:42.683Z,11.3
2017-09-13T02:23:42.044Z,11.3
2017-09-13T02:27:38.490Z,11.3
2017-09-13T02:28:37.962Z,11.3
2017-09-13T02:31:35.776Z,11.4
2017-09-13T02:32:34.560Z,11.4
2017-09-13T02:34:32.983Z,11.4
2017-09-13T02:36:31.286Z,11.4
2017-09-13T02:37:30.584Z,11.4
2017-09-13T02:38:29.999Z,11.4
2017-09-13T02:40:27.928Z,11.4
2017-09-13T02:41:27.472Z,11.5
2017-09-13T02:44:25.045Z,11.5
2017-09-13T02:47:29.782Z,11.5
2017-09-13T02:48:21.401Z,11.5
2017-09-13T02:49:20.820Z,11.5
2017-09-13T02:53:17.519Z,11.6
2017-09-13T02:54:16.700Z,11.6
2017-09-13T02:58:13.650Z,11.6
2017-09-13T03:00:11.698Z,11.6
2017-09-13T03:01:11.118Z,11.6
2017-09-13T03:02:10.282Z,11.6
2017-09-13T03:05:07.722Z,11.6
2017-09-13T03:06:07.019Z,11.6
2017-09-13T03:09:04.706Z,11.6
2017-09-13T03:10:03.868Z,11.6
2017-09-13T03:11:03.160Z,11.6
2017-09-13T03:12:01.950Z,11.6
2017-09-13T03:13:01.247Z,11.6
2017-09-13T03:14:59.674Z,11.6
2017-09-13T03:15:59.092Z,11.5
2017-09-13T03:16:58.397Z,11.5
2017-09-13T03:18:56.825Z,11.5
2017-09-13T03:19:55.620Z,11.5
2017-09-13T03:20:55.165Z,11.5
2017-09-13T03:21:53.832Z,11.5
2017-09-13T03:24:51.769Z,11.5
2017-09-13T03:27:49.337Z,11.6
2017-09-13T03:30:46.908Z,11.6
2017-09-13T03:32:45.098Z,11.6
2017-09-13T03:34:43.778Z,11.6
2017-09-13T03:35:43.070Z,11.6
2017-09-13T03:36:41.856Z,11.6
2017-09-13T03:40:38.925Z,11.6
2017-09-13T03:46:34.152Z,11.7
2017-09-13T03:47:32.825Z,11.7
2017-09-13T03:48:32.118Z,11.7
2017-09-13T03:50:30.923Z,11.7
2017-09-13T03:51:29.839Z,11.7
2017-09-13T03:52:28.879Z,11.7
2017-09-13T03:53:28.047Z,11.7
2017-09-13T03:54:27.466Z,11.7
2017-09-13T03:55:26.755Z,11.8
2017-09-13T03:56:25.796Z,11.8
2017-09-13T03:57:25.092Z,11.8
2017-09-13T03:58:24.275Z,11.8
2017-09-13T04:00:22.332Z,11.8
2017-09-13T04:03:20.141Z,11.9
2017-09-13T04:05:18.442Z,11.9
2017-09-13T04:06:17.857Z,11.9
2017-09-13T04:08:16.151Z,12
2017-09-13T04:09:15.065Z,12.1
2017-09-13T04:11:13.614Z,12.1
2017-09-13T04:12:12.781Z,12.1
2017-09-13T04:13:11.950Z,12.2
2017-09-13T04:14:11.373Z,12.2
2017-09-13T04:15:10.541Z,12.3
2017-09-13T04:16:09.831Z,12.3
2017-09-13T04:17:08.999Z,12.3
2017-09-13T04:18:08.165Z,12.3
2017-09-13T04:20:06.360Z,12.4
2017-09-13T04:21:05.531Z,12.4
2017-09-13T04:22:05.074Z,12.4
2017-09-13T04:23:04.247Z,12.5
2017-09-13T04:24:03.288Z,12.5
2017-09-13T04:25:02.327Z,12.5
2017-09-13T04:27:00.634Z,12.5
2017-09-13T04:28:00.056Z,12.5
2017-09-13T04:30:57.494Z,12.6
2017-09-13T04:31:56.661Z,12.6
2017-09-13T04:32:55.699Z,12.6
2017-09-13T04:33:54.989Z,12.6
2017-09-13T04:34:54.153Z,12.6
2017-09-13T04:35:53.576Z,12.6
2017-09-13T04:36:53.038Z,12.6
2017-09-13T04:37:52.203Z,12.6
2017-09-13T04:38:50.867Z,12.6
2017-09-13T04:39:50.286Z,12.6
2017-09-13T04:40:21.018Z,12.6
2017-09-13T04:40:51.250Z,12.6
2017-09-13T04:41:48.909Z,12.6
2017-09-13T04:42:48.073Z,12.6
2017-09-13T04:43:47.247Z,12.7
2017-09-13T04:44:46.790Z,12.7
2017-09-13T04:45:45.593Z,12.7
2017-09-13T04:46:44.509Z,12.7
2017-09-13T04:47:44.054Z,12.7
2017-09-13T04:48:43.382Z,12.7
2017-09-13T04:49:42.546Z,12.7
2017-09-13T04:50:41.715Z,12.7
2017-09-13T04:51:40.878Z,12.7
2017-09-13T04:52:40.177Z,12.7
2017-09-13T04:53:39.348Z,12.7
2017-09-13T04:54:38.519Z,12.7
2017-09-13T04:56:36.697Z,12.8
2017-09-13T04:57:36.247Z,12.8
2017-09-13T04:58:35.545Z,12.8
2017-09-13T04:59:34.587Z,12.8
2017-09-13T05:00:33.884Z,12.8
2017-09-13T05:01:32.945Z,12.8
2017-09-13T05:02:31.986Z,12.8
2017-09-13T05:03:31.539Z,12.8
2017-09-13T05:04:30.324Z,12.9
2017-09-13T05:05:29.746Z,12.9
2017-09-13T05:06:28.920Z,12.9
2017-09-13T05:07:28.210Z,12.9
2017-09-13T05:08:27.375Z,12.9
2017-09-13T05:09:26.665Z,12.9
2017-09-13T05:10:25.582Z,12.9
2017-09-13T05:11:25.264Z,12.9
2017-09-13T05:12:24.213Z,12.9
2017-09-13T05:13:23.512Z,12.9
2017-09-13T05:14:22.686Z,12.9
2017-09-13T05:15:21.729Z,12.9
2017-09-13T05:16:21.268Z,12.9
2017-09-13T05:17:19.934Z,12.9
2017-09-13T05:18:19.742Z,12.9
2017-09-13T05:19:18.534Z,13
2017-09-13T05:20:17.830Z,13
2017-09-13T05:21:17.134Z,13
2017-09-13T05:22:16.044Z,13
2017-09-13T05:23:15.838Z,13
2017-09-13T05:24:15.004Z,13
2017-09-13T05:25:13.917Z,13
2017-09-13T05:26:12.953Z,13.1
2017-09-13T05:27:12.755Z,13.1
2017-09-13T05:28:11.794Z,13.1
2017-09-13T05:29:10.834Z,13.1
2017-09-13T05:30:10.257Z,13.1
2017-09-13T05:31:08.919Z,13.1
2017-09-13T05:32:08.214Z,13.1
2017-09-13T05:33:07.378Z,13.1
2017-09-13T05:34:07.170Z,13.1
2017-09-13T05:35:05.962Z,13.1
2017-09-13T05:36:05.254Z,13.1
2017-09-13T05:37:04.422Z,13.1
2017-09-13T05:38:04.098Z,13.1
2017-09-13T05:39:03.277Z,13.1
2017-09-13T05:40:02.315Z,13.1
2017-09-13T05:41:01.604Z,13.1
2017-09-13T05:42:00.776Z,13.1
2017-09-13T05:42:59.693Z,13.1
2017-09-13T05:43:59.117Z,13.1
2017-09-13T05:44:58.154Z,13.1
2017-09-13T05:45:57.702Z,13.2
2017-09-13T05:46:56.741Z,13.2
2017-09-13T05:47:55.911Z,13.2
2017-09-13T05:48:55.456Z,13.2
2017-09-13T05:49:54.372Z,13.2
2017-09-13T05:51:52.804Z,13.2
2017-09-13T05:52:51.849Z,13.2
2017-09-13T05:53:51.156Z,13.2
2017-09-13T05:54:50.825Z,13.2
2017-09-13T05:55:49.867Z,13.2
2017-09-13T05:56:49.038Z,13.2
2017-09-13T05:57:48.078Z,13.2
2017-09-13T05:58:47.114Z,13.2
2017-09-13T05:59:46.403Z,13.2
2017-09-13T06:01:45.200Z,13.3
2017-09-13T06:02:44.115Z,13.3
2017-09-13T06:03:43.152Z,13.3
2017-09-13T06:04:42.820Z,13.3
2017-09-13T06:05:41.991Z,13.3
2017-09-13T06:06:41.170Z,13.3
2017-09-13T06:07:40.338Z,13.3
2017-09-13T06:08:39.752Z,13.3
2017-09-13T06:09:38.914Z,13.3
2017-09-13T06:10:38.081Z,13.3
2017-09-13T06:11:37.500Z,13.3
2017-09-13T06:12:36.313Z,13.3
2017-09-13T06:13:35.706Z,13.3
2017-09-13T06:14:34.997Z,13.3
2017-09-13T06:15:34.164Z,13.3
2017-09-13T06:16:04.649Z,13.3
2017-09-13T06:16:34.876Z,13.3
2017-09-13T06:17:04.849Z,13.3
2017-09-13T06:18:31.820Z,13.3
2017-09-13T06:19:30.738Z,13.2
2017-09-13T06:20:30.157Z,13.3
2017-09-13T06:21:29.323Z,13.3
2017-09-13T06:22:28.612Z,13.2
2017-09-13T06:23:27.906Z,13.2
2017-09-13T06:24:27.197Z,13.2
2017-09-13T06:25:26.363Z,13.1
2017-09-13T06:26:25.531Z,13.1
2017-09-13T06:27:24.912Z,13
2017-09-13T06:28:23.951Z,13
2017-09-13T06:29:23.496Z,12.9
2017-09-13T06:30:22.282Z,12.9
2017-09-13T06:31:21.955Z,12.8
2017-09-13T06:32:20.745Z,12.8
2017-09-13T06:33:20.171Z,12.8
2017-09-13T06:34:19.215Z,12.8
2017-09-13T06:35:18.753Z,12.7
2017-09-13T06:36:17.544Z,12.7
2017-09-13T06:37:16.958Z,12.7
2017-09-13T06:38:16.130Z,12.7
2017-09-13T06:39:15.294Z,12.7
2017-09-13T06:40:14.337Z,12.7
2017-09-13T06:41:13.627Z,12.7
2017-09-13T06:42:13.076Z,12.7
2017-09-13T06:43:12.618Z,12.7
2017-09-13T06:44:11.537Z,12.7
2017-09-13T06:45:10.836Z,12.7
2017-09-13T06:46:09.753Z,12.7
2017-09-13T06:47:09.171Z,12.7
2017-09-13T06:48:08.461Z,12.7
2017-09-13T06:49:07.759Z,12.7
2017-09-13T06:50:06.818Z,12.7
2017-09-13T06:51:06.362Z,12.7
2017-09-13T06:52:05.021Z,12.7
2017-09-13T06:53:04.310Z,12.8
2017-09-13T06:54:03.734Z,12.8
2017-09-13T06:55:03.150Z,12.7
2017-09-13T06:56:02.075Z,12.7
2017-09-13T06:57:01.517Z,12.7
2017-09-13T06:58:59.693Z,12.7
2017-09-13T06:59:59.359Z,12.7
2017-09-13T07:00:58.521Z,12.7
2017-09-13T07:01:57.693Z,12.7
2017-09-13T07:02:56.740Z,12.8
2017-09-13T07:03:56.030Z,12.8
2017-09-13T07:04:54.945Z,12.8
2017-09-13T07:05:54.370Z,12.8
2017-09-13T07:06:53.412Z,12.8
2017-09-13T07:07:23.897Z,12.8
2017-09-13T07:07:54.255Z,12.8
2017-09-13T07:08:24.737Z,12.8
2017-09-13T07:08:55.465Z,12.8
2017-09-13T07:09:26.066Z,12.8
2017-09-13T07:09:56.669Z,12.8
2017-09-13T07:10:26.658Z,12.8
2017-09-13T07:12:48.998Z,12.8
2017-09-13T07:14:47.174Z,12.8
2017-09-13T07:15:46.595Z,12.7
2017-09-13T07:16:45.757Z,12.7
2017-09-13T07:17:45.054Z,12.7
2017-09-13T07:18:44.105Z,12.7
2017-09-13T07:19:43.397Z,12.7
2017-09-13T07:20:42.819Z,12.7
2017-09-13T07:21:42.107Z,12.6
2017-09-13T07:22:40.895Z,12.6
2017-09-13T07:23:40.458Z,12.6
2017-09-13T07:24:39.254Z,12.6
2017-09-13T07:26:37.679Z,12.6
2017-09-13T07:27:37.222Z,12.6
2017-09-13T07:28:36.134Z,12.6
2017-09-13T07:29:35.437Z,12.6
2017-09-13T07:30:34.735Z,12.5
2017-09-13T07:31:33.915Z,12.6
2017-09-13T07:33:32.220Z,12.6
2017-09-13T07:34:31.639Z,12.5
2017-09-13T07:35:31.063Z,12.5
2017-09-13T07:36:29.727Z,12.5
2017-09-13T07:37:29.277Z,12.5
2017-09-13T07:38:28.317Z,12.6
2017-09-13T07:39:27.488Z,12.5
2017-09-13T07:40:26.781Z,12.5
2017-09-13T07:41:26.194Z,12.6
2017-09-13T07:42:25.362Z,12.6
2017-09-13T07:43:24.283Z,12.6
2017-09-13T07:44:23.833Z,12.6
2017-09-13T07:45:23.002Z,12.6
2017-09-13T07:46:22.165Z,12.6
2017-09-13T07:47:21.452Z,12.7
2017-09-13T07:48:21.006Z,12.7
2017-09-13T07:49:20.043Z,12.7
2017-09-13T07:49:50.775Z,12.7
2017-09-13T07:51:18.374Z,12.7
2017-09-13T07:52:17.668Z,12.7
2017-09-13T07:53:16.837Z,12.8
2017-09-13T07:54:16.258Z,12.9
2017-09-13T07:55:15.174Z,12.9
2017-09-13T07:56:14.488Z,13
2017-09-13T07:57:13.905Z,13.1
2017-09-13T07:58:13.085Z,13.1
2017-09-13T07:59:12.382Z,13.1
2017-09-13T08:00:11.185Z,13.1
2017-09-13T08:01:10.478Z,13.2
2017-09-13T08:03:09.280Z,13.2
2017-09-13T08:04:07.940Z,13.2
2017-09-13T08:05:07.354Z,13.3
2017-09-13T08:06:06.515Z,13.3
2017-09-13T08:08:05.197Z,13.3
2017-09-13T08:09:04.239Z,13.3
2017-09-13T08:10:03.790Z,13.4
2017-09-13T08:11:02.459Z,13.4
2017-09-13T08:12:01.876Z,13.5
2017-09-13T08:13:01.301Z,13.5
2017-09-13T08:14:00.232Z,13.5
2017-09-13T08:14:59.776Z,13.5
2017-09-13T08:15:58.817Z,13.5
2017-09-13T08:16:58.244Z,13.6
2017-09-13T08:17:57.534Z,13.6
2017-09-13T08:18:56.319Z,13.7
2017-09-13T08:19:55.739Z,13.7
2017-09-13T08:20:55.157Z,13.8
2017-09-13T08:21:54.210Z,13.8
2017-09-13T08:22:53.520Z,13.8
2017-09-13T08:23:52.817Z,13.8
2017-09-13T08:24:51.732Z,13.9
2017-09-13T08:25:50.777Z,13.9
2017-09-13T08:26:50.322Z,13.9
2017-09-13T08:27:49.617Z,13.9
2017-09-13T08:28:48.658Z,13.9
2017-09-13T08:29:47.826Z,13.9
2017-09-13T08:30:47.369Z,13.9
2017-09-13T08:31:46.279Z,13.8
2017-09-13T08:32:45.446Z,13.9
2017-09-13T08:33:44.991Z,13.9
2017-09-13T08:34:44.412Z,13.9
2017-09-13T08:35:43.580Z,13.9
2017-09-13T08:36:42.497Z,13.9
2017-09-13T08:37:42.040Z,13.9
2017-09-13T08:38:41.212Z,14
2017-09-13T08:39:40.283Z,14
2017-09-13T08:40:39.588Z,14.1
2017-09-13T08:41:39.133Z,14.2
2017-09-13T08:42:37.929Z,14.2
2017-09-13T08:43:37.097Z,14.3
2017-09-13T08:44:36.640Z,14.3
2017-09-13T08:45:35.680Z,14.4
2017-09-13T08:46:05.906Z,14.4
2017-09-13T08:47:34.024Z,14.5
2017-09-13T08:48:33.564Z,14.5
2017-09-13T08:49:32.618Z,14.6
2017-09-13T08:50:32.039Z,14.6
2017-09-13T08:51:31.207Z,14.7
2017-09-13T08:52:30.120Z,14.7
2017-09-13T08:53:29.799Z,14.8
2017-09-13T08:54:28.719Z,14.9
2017-09-13T08:55:28.385Z,15
2017-09-13T08:56:27.299Z,15
2017-09-13T08:57:26.847Z,15.1
2017-09-13T08:58:25.888Z,15.1
2017-09-13T08:59:25.181Z,15.2
2017-09-13T09:00:24.227Z,15.2
2017-09-13T09:01:23.527Z,15.3
2017-09-13T09:02:22.571Z,15.3
2017-09-13T09:03:21.993Z,15.4
2017-09-13T09:04:21.412Z,15.4
2017-09-13T09:05:20.460Z,15.4
2017-09-13T09:06:19.999Z,15.4
2017-09-13T09:07:18.790Z,15.4
2017-09-13T09:08:18.230Z,15.5
2017-09-13T09:09:17.640Z,15.5
2017-09-13T09:10:16.936Z,15.5
2017-09-13T09:11:15.986Z,15.6
2017-09-13T09:12:15.277Z,15.6
2017-09-13T09:13:14.446Z,15.6
2017-09-13T09:14:13.484Z,15.7
2017-09-13T09:15:12.910Z,15.7
2017-09-13T09:16:12.204Z,15.8
2017-09-13T09:16:42.432Z,15.8
2017-09-13T09:17:12.659Z,15.8
2017-09-13T09:18:11.079Z,15.9
2017-09-13T09:19:09.996Z,15.9
2017-09-13T09:21:08.430Z,16
2017-09-13T09:22:07.842Z,16.1
2017-09-13T09:23:07.137Z,16.1
2017-09-13T09:24:06.176Z,16.1
2017-09-13T09:25:05.596Z,16.1
2017-09-13T09:26:04.760Z,16.2
2017-09-13T09:27:04.189Z,16.2
2017-09-13T09:28:03.612Z,16.2
2017-09-13T09:29:02.528Z,16.3
2017-09-13T09:30:01.567Z,16.3
2017-09-13T09:31:01.123Z,16.3
2017-09-13T09:32:00.669Z,16.4
2017-09-13T09:33:00.093Z,16.4
2017-09-13T09:33:59.019Z,16.4
2017-09-13T09:35:57.446Z,16.3
2017-09-13T09:36:56.858Z,16.3
2017-09-13T09:37:56.153Z,16.3
2017-09-13T09:38:55.575Z,16.4
2017-09-13T09:39:54.496Z,16.4
2017-09-13T09:40:54.034Z,16.5
2017-09-13T09:41:53.331Z,16.5
2017-09-13T09:42:52.367Z,16.6
2017-09-13T09:44:50.667Z,16.6
2017-09-13T09:45:50.341Z,16.6
2017-09-13T09:46:49.506Z,16.6
2017-09-13T09:47:48.931Z,16.6
2017-09-13T09:49:47.361Z,16.6
2017-09-13T09:50:46.539Z,16.6
2017-09-13T09:51:46.099Z,16.6
2017-09-13T09:52:45.141Z,16.6
2017-09-13T09:53:44.568Z,16.5
2017-09-13T09:54:43.856Z,16.5
2017-09-13T09:55:43.147Z,16.5
2017-09-13T09:56:42.192Z,16.5
2017-09-13T09:57:41.610Z,16.5
2017-09-13T09:58:41.023Z,16.5
2017-09-13T09:59:40.192Z,16.5
2017-09-13T10:00:39.743Z,16.5
2017-09-13T10:01:38.790Z,16.5
2017-09-13T10:02:38.201Z,16.5
2017-09-13T10:03:37.742Z,16.5
2017-09-13T10:04:36.535Z,16.5
2017-09-13T10:05:35.825Z,16.5
2017-09-13T10:06:35.272Z,16.4
2017-09-13T10:07:34.690Z,16.4
2017-09-13T10:08:33.981Z,16.4
2017-09-13T10:09:32.774Z,16.4
2017-09-13T10:10:32.195Z,16.3
2017-09-13T10:11:31.364Z,16.3
2017-09-13T10:12:31.289Z,16.3
2017-09-13T10:13:30.091Z,16.3
2017-09-13T10:14:29.401Z,16.2
2017-09-13T10:15:28.816Z,16.2
2017-09-13T10:16:28.104Z,16.2
2017-09-13T10:17:27.650Z,16.2
2017-09-13T10:18:26.557Z,16.3
2017-09-13T10:19:25.850Z,16.3
2017-09-13T10:21:24.476Z,16.2
2017-09-13T10:22:23.904Z,16.1
2017-09-13T10:23:23.196Z,16.1
2017-09-13T10:24:22.615Z,16
2017-09-13T10:25:21.662Z,15.9
2017-09-13T10:26:20.707Z,15.9
2017-09-13T10:27:20.380Z,15.9
2017-09-13T10:28:19.450Z,15.9
2017-09-13T10:29:18.716Z,15.9
2017-09-13T10:30:18.133Z,15.9
2017-09-13T10:31:17.841Z,15.9
2017-09-13T10:32:16.632Z,15.9
2017-09-13T10:33:16.045Z,15.9
2017-09-13T10:34:15.085Z,15.9
2017-09-13T10:35:14.507Z,15.9
2017-09-13T10:36:13.933Z,15.9
2017-09-13T10:37:13.227Z,16
2017-09-13T10:38:12.266Z,16
2017-09-13T10:39:11.561Z,16
2017-09-13T10:40:10.982Z,16
2017-09-13T10:41:10.156Z,16.1
2017-09-13T10:42:09.585Z,16.2
2017-09-13T10:43:08.998Z,16.2
2017-09-13T10:44:08.167Z,16.3
2017-09-13T10:45:07.707Z,16.3
2017-09-13T10:46:06.617Z,16.3
2017-09-13T10:47:05.910Z,16.3
2017-09-13T10:48:05.206Z,16.4
2017-09-13T10:49:04.620Z,16.4
2017-09-13T10:50:04.203Z,16.4
2017-09-13T10:51:03.119Z,16.5
2017-09-13T10:52:02.539Z,16.5
2017-09-13T10:53:01.705Z,16.5
2017-09-13T10:54:01.131Z,16.6
2017-09-13T10:55:59.813Z,16.9
2017-09-13T10:56:58.732Z,17
2017-09-13T10:57:58.407Z,17.1
2017-09-13T10:58:57.191Z,17.1
2017-09-13T10:59:56.746Z,17.2
2017-09-13T11:00:56.298Z,17.2
2017-09-13T11:02:54.842Z,17.1
2017-09-13T11:03:53.884Z,17.2
2017-09-13T11:04:52.934Z,17.2
2017-09-13T11:05:52.602Z,17.2
2017-09-13T11:06:52.017Z,17.3
2017-09-13T11:07:51.308Z,17.4
2017-09-13T11:08:50.346Z,17.6
2017-09-13T11:09:49.638Z,17.7
2017-09-13T11:10:49.188Z,17.8
2017-09-13T11:11:48.493Z,17.8
2017-09-13T11:12:47.655Z,17.8
2017-09-13T11:13:47.088Z,17.7
2017-09-13T11:14:46.512Z,17.6
2017-09-13T11:15:45.436Z,17.6
2017-09-13T11:17:44.367Z,17.7
2017-09-13T11:18:43.291Z,17.7
2017-09-13T11:19:42.843Z,17.7
2017-09-13T11:20:42.262Z,17.8
2017-09-13T11:21:41.804Z,17.9
2017-09-13T11:22:40.620Z,18
2017-09-13T11:23:40.042Z,17.9
2017-09-13T11:24:39.585Z,18
2017-09-13T11:25:38.377Z,18
2017-09-13T11:26:37.800Z,18.1
2017-09-13T11:27:37.087Z,18.1
2017-09-13T11:28:36.522Z,18.1
2017-09-13T11:29:35.941Z,18.1
2017-09-13T11:30:35.230Z,18.2
2017-09-13T11:31:34.525Z,18.2
2017-09-13T11:32:34.072Z,18.2
2017-09-13T11:33:33.113Z,18.3
2017-09-13T11:34:32.673Z,18.3
2017-09-13T11:35:32.089Z,18.4
2017-09-13T11:36:31.124Z,18.5
2017-09-13T11:37:30.427Z,18.4
2017-09-13T11:38:29.721Z,18.4
2017-09-13T11:39:29.386Z,18.4
2017-09-13T11:40:28.425Z,18.4
2017-09-13T11:41:27.843Z,18.5
2017-09-13T11:42:27.135Z,18.5
2017-09-13T11:43:26.677Z,18.4
2017-09-13T11:45:25.356Z,18.3
2017-09-13T11:46:24.651Z,18.3
2017-09-13T11:47:23.818Z,18.2
2017-09-13T11:48:22.987Z,18.2
2017-09-13T11:49:22.405Z,18.2
2017-09-13T11:50:21.955Z,18.2
2017-09-13T11:51:20.867Z,18.2
2017-09-13T11:52:20.419Z,18.2
2017-09-13T11:53:19.976Z,18.2
2017-09-13T11:54:19.390Z,18.2
2017-09-13T11:55:18.055Z,18.2
2017-09-13T11:56:17.854Z,18.2
2017-09-13T11:57:17.150Z,18.2
2017-09-13T11:58:16.438Z,18.2
2017-09-13T11:59:15.733Z,18.2
2017-09-13T12:00:14.777Z,18.2
2017-09-13T12:01:14.322Z,18.2
2017-09-13T12:02:13.623Z,18.2
2017-09-13T12:03:13.174Z,18.1
2017-09-13T12:04:12.351Z,18.1
2017-09-13T12:05:11.517Z,18.1
2017-09-13T12:06:11.313Z,18.1
2017-09-13T12:07:10.608Z,18
2017-09-13T12:08:09.896Z,18
2017-09-13T12:09:08.816Z,18
2017-09-13T12:10:08.367Z,17.9
2017-09-13T12:11:07.783Z,17.9
2017-09-13T12:12:07.088Z,17.9
2017-09-13T12:13:06.634Z,17.9
2017-09-13T12:14:05.420Z,17.9
2017-09-13T12:15:05.219Z,17.9
2017-09-13T12:16:04.511Z,17.9
2017-09-13T12:17:03.803Z,17.9
2017-09-13T12:18:02.844Z,17.8
2017-09-13T12:19:02.271Z,17.8
2017-09-13T12:20:01.685Z,17.8
2017-09-13T12:21:01.104Z,17.8
2017-09-13T12:22:00.274Z,17.8
2017-09-13T12:22:59.445Z,17.8
2017-09-13T12:23:58.989Z,17.7
2017-09-13T12:24:58.282Z,17.7
2017-09-13T12:25:57.699Z,17.8
2017-09-13T12:26:57.000Z,17.8
2017-09-13T12:27:56.297Z,17.8
2017-09-13T12:28:55.714Z,17.9
2017-09-13T12:29:54.755Z,17.9
2017-09-13T12:30:54.303Z,17.9
2017-09-13T12:31:53.747Z,17.9
2017-09-13T12:32:53.036Z,17.8
2017-09-13T12:33:52.198Z,17.8
2017-09-13T12:34:51.362Z,17.9
2017-09-13T12:35:50.647Z,17.9
2017-09-13T12:36:50.185Z,17.9
2017-09-13T12:37:49.860Z,17.9
2017-09-13T12:38:48.783Z,17.8
2017-09-13T12:39:48.334Z,17.9
2017-09-13T12:40:47.879Z,18
2017-09-13T12:41:46.674Z,18.1
2017-09-13T12:42:45.975Z,18.2
2017-09-13T12:43:45.400Z,18.2
2017-09-13T12:44:44.817Z,18.2
2017-09-13T12:45:44.238Z,18.2
2017-09-13T12:46:43.278Z,18.2
2017-09-13T12:47:42.700Z,18.1
2017-09-13T12:48:41.991Z,18
2017-09-13T12:50:40.807Z,18
2017-09-13T12:51:40.471Z,18
2017-09-13T12:52:39.510Z,18
2017-09-13T12:53:38.925Z,18
2017-09-13T12:54:38.219Z,18
2017-09-13T12:55:37.762Z,18
2017-09-13T12:56:36.807Z,18
2017-09-13T12:57:36.098Z,17.9
2017-09-13T12:58:35.387Z,17.9
2017-09-13T12:59:34.815Z,17.9
2017-09-13T13:00:05.041Z,17.9
2017-09-13T13:01:33.399Z,17.9
2017-09-13T13:02:32.816Z,17.9
2017-09-13T13:03:32.358Z,17.9
2017-09-13T13:04:31.411Z,17.9
2017-09-13T13:05:30.826Z,17.9
2017-09-13T13:06:30.015Z,17.8
2017-09-13T13:07:29.300Z,17.8
2017-09-13T13:08:28.723Z,17.8
2017-09-13T13:09:28.397Z,17.8
2017-09-13T13:10:27.563Z,17.8
2017-09-13T13:11:26.605Z,17.9
2017-09-13T13:12:26.034Z,17.9
2017-09-13T13:13:25.325Z,17.9
2017-09-13T13:14:24.747Z,18
2017-09-13T13:15:24.041Z,18.1
2017-09-13T13:16:23.331Z,18.3
2017-09-13T13:17:22.884Z,18.3
2017-09-13T13:18:22.178Z,18.3
2017-09-13T13:19:21.591Z,18.3
2017-09-13T13:20:21.135Z,18.2
2017-09-13T13:21:19.922Z,18.2
2017-09-13T13:22:19.350Z,18.1
2017-09-13T13:23:18.639Z,18.1
2017-09-13T13:24:18.189Z,18
2017-09-13T13:25:17.387Z,18
2017-09-13T13:26:17.073Z,17.9
2017-09-13T13:27:15.989Z,17.9
2017-09-13T13:28:15.421Z,17.8
2017-09-13T13:29:14.837Z,17.8
2017-09-13T13:30:14.258Z,17.8
2017-09-13T13:31:13.424Z,17.7
2017-09-13T13:32:12.966Z,17.7
2017-09-13T13:33:12.134Z,17.7
2017-09-13T13:34:11.427Z,17.7
2017-09-13T13:35:10.717Z,17.7
2017-09-13T13:36:10.011Z,17.7
2017-09-13T13:37:09.808Z,17.7
2017-09-13T13:38:08.593Z,17.7
2017-09-13T13:39:08.389Z,17.7
2017-09-13T13:40:07.807Z,17.7
2017-09-13T13:41:06.605Z,17.7
2017-09-13T13:42:06.021Z,17.7
2017-09-13T13:42:36.504Z,17.7
2017-09-13T13:43:06.761Z,17.8
2017-09-13T13:43:36.995Z,17.8
2017-09-13T13:44:07.605Z,17.8
2017-09-13T13:45:04.144Z,17.8
2017-09-13T13:46:03.688Z,17.8
2017-09-13T13:47:02.606Z,17.8
2017-09-13T13:48:01.982Z,17.8
2017-09-13T13:49:01.400Z,17.8
2017-09-13T13:50:00.823Z,17.8
2017-09-13T13:51:00.119Z,17.8
2017-09-13T13:51:59.547Z,17.8
2017-09-13T13:53:58.483Z,17.9
2017-09-13T13:54:57.273Z,17.9
2017-09-13T13:55:56.824Z,17.9
2017-09-13T13:56:56.246Z,18
2017-09-13T13:57:55.671Z,18
2017-09-13T13:58:54.716Z,18.1
2017-09-13T13:59:54.011Z,18.1
2017-09-13T14:00:53.557Z,18.1
2017-09-13T14:01:52.597Z,18.2
2017-09-13T14:02:52.402Z,18.2
2017-09-13T14:03:51.440Z,18.3
2017-09-13T14:04:50.862Z,18.3
2017-09-13T14:05:50.160Z,18.4
2017-09-13T14:06:49.706Z,18.4
2017-09-13T14:07:48.742Z,18.4
2017-09-13T14:08:48.300Z,18.5
2017-09-13T14:09:47.214Z,18.5
2017-09-13T14:10:47.014Z,18.6
2017-09-13T14:11:46.181Z,18.6
2017-09-13T14:12:45.603Z,18.7
2017-09-13T14:13:44.898Z,18.7
2017-09-13T14:14:44.314Z,18.8
2017-09-13T14:15:43.609Z,18.9
2017-09-13T14:16:42.904Z,19
2017-09-13T14:17:42.066Z,19
2017-09-13T14:18:41.483Z,18.9
2017-09-13T14:19:40.903Z,18.9
2017-09-13T14:20:40.195Z,18.8
2017-09-13T14:21:39.119Z,18.8
2017-09-13T14:22:39.035Z,18.8
2017-09-13T14:23:38.206Z,18.7
2017-09-13T14:24:37.501Z,18.7
2017-09-13T14:25:37.042Z,18.7
2017-09-13T14:26:36.083Z,18.7
2017-09-13T14:27:35.377Z,18.7
2017-09-13T14:28:34.933Z,18.7
2017-09-13T14:29:34.225Z,18.7
2017-09-13T14:30:33.516Z,18.7
2017-09-13T14:31:33.065Z,18.8
2017-09-13T14:32:32.361Z,18.8
2017-09-13T14:34:31.042Z,18.8
2017-09-13T14:35:30.083Z,18.8
2017-09-13T14:36:29.882Z,18.8
2017-09-13T14:37:28.812Z,18.8
2017-09-13T14:38:27.980Z,18.8
2017-09-13T14:38:58.462Z,18.8
2017-09-13T14:39:28.687Z,18.7
2017-09-13T14:39:59.170Z,18.7
2017-09-13T14:41:26.274Z,18.7
2017-09-13T14:42:25.698Z,18.7
2017-09-13T14:43:25.116Z,18.7
2017-09-13T14:44:24.535Z,18.7
2017-09-13T14:46:23.215Z,18.7
2017-09-13T14:47:22.635Z,18.7
2017-09-13T14:48:21.932Z,18.7
2017-09-13T14:49:20.974Z,18.7
2017-09-13T14:50:20.393Z,18.6
2017-09-13T14:51:19.687Z,18.6
2017-09-13T14:52:19.365Z,18.6
2017-09-13T14:54:17.537Z,18.9
2017-09-13T14:55:17.227Z,19
2017-09-13T14:56:16.372Z,19.1
2017-09-13T14:57:15.790Z,19.1
2017-09-13T14:58:15.210Z,19.1
2017-09-13T14:59:14.267Z,19.2
2017-09-13T15:00:14.186Z,19.2
2017-09-13T15:01:13.222Z,19.2
2017-09-13T15:02:12.390Z,19.2
2017-09-13T15:03:11.856Z,19.1
2017-09-13T15:04:11.276Z,19.1
2017-09-13T15:05:10.704Z,19.1
2017-09-13T15:06:10.252Z,19.1
2017-09-13T15:07:09.802Z,19
2017-09-13T15:08:08.839Z,18.9
2017-09-13T15:09:08.008Z,18.9
2017-09-13T15:10:07.304Z,18.9
2017-09-13T15:11:06.725Z,19
2017-09-13T15:12:06.323Z,19
2017-09-13T15:13:05.623Z,18.9
2017-09-13T15:14:05.036Z,18.8
2017-09-13T15:15:04.331Z,18.7
2017-09-13T15:16:03.372Z,18.6
2017-09-13T15:17:03.170Z,18.5
2017-09-13T15:18:02.591Z,18.5
2017-09-13T15:19:01.764Z,18.4